PWSweather.com
Personal Weather Stations
Station Observations
ITORSHLL5
TorshällaSE

TorshällaSE

Lat: 59.41181946, Lon: 16.48669243

Elevation: 49

Station Type:

Latest ConditionsUpdated 9:09:00 PM GMT+01:01 Tuesday, Feb 19, 2019
Currently Today's Max Today's Min Today's Average
Temperature 41.4°F5.2°C 45.0°F7.2°C 41.2°F5.1°C 42.7°F5.9°C
Dew Point 24.6°F-4.1°C 29.1°F-1.6°C 22.5°F-5.3°C 26.4°F-3.1°C
Winds 9.2 mph S14.8 kmh S 21.3 mph -34.3 kmh - - 10.9 mph 17.5 kmh
Wind Gusts 10.7 mph17.2 kmh 25.1 mph40.4 kmh - -
Humidity 51% 60% 41% 52%
Pressure 29.31 in992.6 mb 29.64 in1003.7 mb 28.03 in949.2 mb -
Hour Temp Dew Point Humidity Winds Wind Gusts Pressure Precip Precip Rate Daily Precip Total
09:09 PM 41.4°F5.2°C 24.6°F-4.1°C 51% 9.2 mph S14.8 kmh S 10.7 mph17.2 kmh 29.31 in992.6 mb 0.00 in0.0 mm 0.00 in0.0 mm 0.00 in0.0 mm
09:04 PM 41.5°F5.3°C 24.8°F-4.0°C 51% 10.7 mph SW17.2 kmh SW 13.6 mph21.9 kmh 29.31 in992.6 mb 0.00 in0.0 mm 0.00 in0.0 mm 0.00 in0.0 mm
08:59 PM 41.5°F5.3°C 24.8°F-4.0°C 51% 9.8 mph SW15.8 kmh SW 13.6 mph21.9 kmh 29.31 in992.6 mb 0.00 in0.0 mm 0.00 in0.0 mm 0.00 in0.0 mm
08:54 PM 41.5°F5.3°C 24.8°F-4.0°C 51% 12.1 mph SW19.5 kmh SW 13.0 mph20.9 kmh 29.31 in992.6 mb 0.00 in0.0 mm 0.00 in0.0 mm 0.00 in0.0 mm
08:49 PM 41.5°F5.3°C 25.2°F-3.8°C 52% 7.6 mph S12.2 kmh S 13.0 mph20.9 kmh 29.31 in992.6 mb 0.00 in0.0 mm 0.00 in0.0 mm 0.00 in0.0 mm
08:44 PM 41.5°F5.3°C 24.8°F-4.0°C 51% 10.7 mph SW17.2 kmh SW 13.0 mph20.9 kmh 29.31 in992.6 mb 0.00 in0.0 mm 0.00 in0.0 mm 0.00 in0.0 mm
08:39 PM 41.5°F5.3°C 25.2°F-3.8°C 52% 9.8 mph SW15.8 kmh SW 10.7 mph17.2 kmh 29.31 in992.6 mb 0.00 in0.0 mm 0.00 in0.0 mm 0.00 in0.0 mm
08:34 PM 41.5°F5.3°C 25.2°F-3.8°C 52% 9.2 mph S14.8 kmh S 12.1 mph19.5 kmh 29.31 in992.6 mb 0.00 in0.0 mm 0.00 in0.0 mm 0.00 in0.0 mm
08:29 PM 41.5°F5.3°C 25.2°F-3.8°C 52% 7.6 mph W12.2 kmh W 12.1 mph19.5 kmh 29.30 in992.2 mb 0.00 in0.0 mm 0.00 in0.0 mm 0.00 in0.0 mm
08:24 PM 41.5°F5.3°C 25.2°F-3.8°C 52% 9.2 mph S14.8 kmh S 13.6 mph21.9 kmh 29.30 in992.2 mb 0.00 in0.0 mm 0.00 in0.0 mm 0.00 in0.0 mm
08:19 PM 41.5°F5.3°C 25.2°F-3.8°C 52% 12.1 mph SW19.5 kmh SW 13.6 mph21.9 kmh 29.31 in992.6 mb 0.00 in0.0 mm 0.00 in0.0 mm 0.00 in0.0 mm
08:14 PM 41.5°F5.3°C 25.7°F-3.5°C 53% 9.8 mph SW15.8 kmh SW 9.8 mph15.8 kmh 29.30 in992.2 mb 0.00 in0.0 mm 0.00 in0.0 mm 0.00 in0.0 mm
08:09 PM 41.5°F5.3°C 25.7°F-3.5°C 53% 8.3 mph SW13.4 kmh SW 8.3 mph13.4 kmh 29.31 in992.6 mb 0.00 in0.0 mm 0.00 in0.0 mm 0.00 in0.0 mm
08:04 PM 41.5°F5.3°C 25.7°F-3.5°C 53% 7.6 mph SW12.2 kmh SW 10.7 mph17.2 kmh 29.31 in992.6 mb 0.00 in0.0 mm 0.00 in0.0 mm 0.00 in0.0 mm
07:59 PM 41.5°F5.3°C 25.7°F-3.5°C 53% 8.3 mph SW13.4 kmh SW 11.4 mph18.3 kmh 29.31 in992.6 mb 0.00 in0.0 mm 0.00 in0.0 mm 0.00 in0.0 mm
07:54 PM 41.5°F5.3°C 25.7°F-3.5°C 53% 10.7 mph SW17.2 kmh SW 13.6 mph21.9 kmh 29.31 in992.6 mb 0.00 in0.0 mm 0.00 in0.0 mm 0.00 in0.0 mm
07:49 PM 41.5°F5.3°C 25.7°F-3.5°C 53% 6.9 mph SW11.1 kmh SW 14.5 mph23.3 kmh 29.31 in992.6 mb 0.00 in0.0 mm 0.00 in0.0 mm 0.00 in0.0 mm
07:44 PM 41.5°F5.3°C 25.7°F-3.5°C 53% 9.8 mph SW15.8 kmh SW 14.5 mph23.3 kmh 29.31 in992.6 mb 0.00 in0.0 mm 0.00 in0.0 mm 0.00 in0.0 mm
07:39 PM 41.7°F5.4°C 25.9°F-3.4°C 53% 11.4 mph S18.3 kmh S 11.4 mph18.3 kmh 29.30 in992.2 mb 0.00 in0.0 mm 0.00 in0.0 mm 0.00 in0.0 mm
07:34 PM 41.7°F5.4°C 25.9°F-3.4°C 53% 9.8 mph SW15.8 kmh SW 13.0 mph20.9 kmh 29.30 in992.2 mb 0.00 in0.0 mm 0.00 in0.0 mm 0.00 in0.0 mm
07:29 PM 41.7°F5.4°C 25.9°F-3.4°C 53% 6.9 mph SW11.1 kmh SW 13.0 mph20.9 kmh 29.30 in992.2 mb 0.00 in0.0 mm 0.00 in0.0 mm 0.00 in0.0 mm
07:24 PM 41.7°F5.4°C 26.3°F-3.2°C 54% 10.7 mph SW17.2 kmh SW 10.7 mph17.2 kmh 29.30 in992.2 mb 0.00 in0.0 mm 0.00 in0.0 mm 0.00 in0.0 mm
07:19 PM 41.7°F5.4°C 26.3°F-3.2°C 54% 6.9 mph SW11.1 kmh SW 9.8 mph15.8 kmh 29.30 in992.2 mb 0.00 in0.0 mm 0.00 in0.0 mm 0.00 in0.0 mm
07:14 PM 41.7°F5.4°C 26.3°F-3.2°C 54% 9.2 mph SW14.8 kmh SW 9.8 mph15.8 kmh 29.30 in992.2 mb 0.00 in0.0 mm 0.00 in0.0 mm 0.00 in0.0 mm
07:09 PM 41.7°F5.4°C 26.3°F-3.2°C 54% 9.8 mph S15.8 kmh S 10.7 mph17.2 kmh 29.30 in992.2 mb 0.00 in0.0 mm 0.00 in0.0 mm 0.00 in0.0 mm
07:04 PM 41.7°F5.4°C 26.3°F-3.2°C 54% 9.2 mph S14.8 kmh S 12.1 mph19.5 kmh 29.30 in992.2 mb 0.00 in0.0 mm 0.00 in0.0 mm 0.00 in0.0 mm
06:59 PM 41.7°F5.4°C 26.3°F-3.2°C 54% 10.7 mph SW17.2 kmh SW 13.0 mph20.9 kmh 29.30 in992.2 mb 0.00 in0.0 mm 0.00 in0.0 mm 0.00 in0.0 mm
06:54 PM 41.7°F5.4°C 26.8°F-2.9°C 55% 10.7 mph SW17.2 kmh SW 13.0 mph20.9 kmh 29.30 in992.2 mb 0.00 in0.0 mm 0.00 in0.0 mm 0.00 in0.0 mm
06:49 PM 41.7°F5.4°C 26.8°F-2.9°C 55% 10.7 mph SW17.2 kmh SW 17.4 mph28.0 kmh 29.30 in992.2 mb 0.00 in0.0 mm 0.00 in0.0 mm 0.00 in0.0 mm
06:44 PM 41.7°F5.4°C 27.2°F-2.7°C 56% 9.8 mph SW15.8 kmh SW 17.4 mph28.0 kmh 29.30 in992.2 mb 0.00 in0.0 mm 0.00 in0.0 mm 0.00 in0.0 mm
06:39 PM 41.7°F5.4°C 27.6°F-2.4°C 57% 9.2 mph S14.8 kmh S 14.5 mph23.3 kmh 29.30 in992.2 mb 0.00 in0.0 mm 0.00 in0.0 mm 0.00 in0.0 mm
06:34 PM 41.5°F5.3°C 27.5°F-2.5°C 57% 8.3 mph SW13.4 kmh SW 13.0 mph20.9 kmh 29.30 in992.2 mb 0.00 in0.0 mm 0.00 in0.0 mm 0.00 in0.0 mm
06:29 PM 41.5°F5.3°C 27.5°F-2.5°C 57% 12.1 mph S19.5 kmh S 13.6 mph21.9 kmh 29.30 in992.2 mb 0.00 in0.0 mm 0.00 in0.0 mm 0.00 in0.0 mm
06:24 PM 41.5°F5.3°C 27.5°F-2.5°C 57% 7.6 mph SW12.2 kmh SW 13.6 mph21.9 kmh 29.30 in992.2 mb 0.00 in0.0 mm 0.00 in0.0 mm 0.00 in0.0 mm
06:19 PM 41.5°F5.3°C 27.5°F-2.5°C 57% 10.7 mph SW17.2 kmh SW 13.0 mph20.9 kmh 29.30 in992.2 mb 0.00 in0.0 mm 0.00 in0.0 mm 0.00 in0.0 mm
06:14 PM 41.5°F5.3°C 27.5°F-2.5°C 57% 9.2 mph S14.8 kmh S 13.0 mph20.9 kmh 29.30 in992.2 mb 0.00 in0.0 mm 0.00 in0.0 mm 0.00 in0.0 mm
06:09 PM 41.5°F5.3°C 27.5°F-2.5°C 57% 10.7 mph SW17.2 kmh SW 13.0 mph20.9 kmh 29.30 in992.2 mb 0.00 in0.0 mm 0.00 in0.0 mm 0.00 in0.0 mm
06:04 PM 41.5°F5.3°C 27.5°F-2.5°C 57% 6.0 mph S9.7 kmh S 11.4 mph18.3 kmh 29.30 in992.2 mb 0.00 in0.0 mm 0.00 in0.0 mm 0.00 in0.0 mm
05:59 PM 41.5°F5.3°C 27.5°F-2.5°C 57% 8.3 mph SW13.4 kmh SW 13.6 mph21.9 kmh 29.29 in991.9 mb 0.00 in0.0 mm 0.00 in0.0 mm 0.00 in0.0 mm
05:54 PM 41.5°F5.3°C 27.5°F-2.5°C 57% 6.9 mph SW11.1 kmh SW 13.6 mph21.9 kmh 29.30 in992.2 mb 0.00 in0.0 mm 0.00 in0.0 mm 0.00 in0.0 mm
05:49 PM 41.5°F5.3°C 27.5°F-2.5°C 57% 13.6 mph SW21.9 kmh SW 13.6 mph21.9 kmh 29.30 in992.2 mb 0.00 in0.0 mm 0.00 in0.0 mm 0.00 in0.0 mm
05:44 PM 41.5°F5.3°C 27.5°F-2.5°C 57% 11.4 mph S18.3 kmh S 13.0 mph20.9 kmh 29.29 in991.9 mb 0.00 in0.0 mm 0.00 in0.0 mm 0.00 in0.0 mm
05:39 PM 41.5°F5.3°C 27.0°F-2.8°C 56% 11.4 mph S18.3 kmh S 13.0 mph20.9 kmh 29.30 in992.2 mb 0.00 in0.0 mm 0.00 in0.0 mm 0.00 in0.0 mm
05:34 PM 41.5°F5.3°C 27.0°F-2.8°C 56% 13.0 mph S20.9 kmh S 13.0 mph20.9 kmh 29.29 in991.9 mb 0.00 in0.0 mm 0.00 in0.0 mm 0.00 in0.0 mm
05:29 PM 41.7°F5.4°C 26.8°F-2.9°C 55% 8.3 mph S13.4 kmh S 10.7 mph17.2 kmh 29.29 in991.9 mb 0.00 in0.0 mm 0.00 in0.0 mm 0.00 in0.0 mm
05:24 PM 41.7°F5.4°C 26.3°F-3.2°C 54% 9.2 mph SW14.8 kmh SW 11.4 mph18.3 kmh 29.30 in992.2 mb 0.00 in0.0 mm 0.00 in0.0 mm 0.00 in0.0 mm
05:19 PM 41.7°F5.4°C 26.3°F-3.2°C 54% 9.8 mph S15.8 kmh S 11.4 mph18.3 kmh 29.30 in992.2 mb 0.00 in0.0 mm 0.00 in0.0 mm 0.00 in0.0 mm
05:14 PM 41.9°F5.5°C 26.0°F-3.3°C 53% 6.9 mph SE11.1 kmh SE 11.4 mph18.3 kmh 29.30 in992.2 mb 0.00 in0.0 mm 0.00 in0.0 mm 0.00 in0.0 mm
05:09 PM 42.1°F5.6°C 26.2°F-3.2°C 53% 9.2 mph S14.8 kmh S 12.1 mph19.5 kmh 29.29 in991.9 mb 0.00 in0.0 mm 0.00 in0.0 mm 0.00 in0.0 mm
05:04 PM 42.4°F5.8°C 25.6°F-3.6°C 51% 11.4 mph S18.3 kmh S 12.1 mph19.5 kmh 29.29 in991.9 mb 0.00 in0.0 mm 0.00 in0.0 mm 0.00 in0.0 mm
04:59 PM 42.4°F5.8°C 25.6°F-3.6°C 51% 12.1 mph SW19.5 kmh SW 12.1 mph19.5 kmh 29.30 in992.2 mb 0.00 in0.0 mm 0.00 in0.0 mm 0.00 in0.0 mm
04:54 PM 42.4°F5.8°C 25.1°F-3.8°C 50% 12.1 mph WSW19.5 kmh WSW 12.1 mph19.5 kmh 29.30 in992.2 mb 0.00 in0.0 mm 0.00 in0.0 mm 0.00 in0.0 mm
04:49 PM 42.6°F5.9°C 25.3°F-3.7°C 50% 12.1 mph S19.5 kmh S 15.9 mph25.6 kmh 29.30 in992.2 mb 0.00 in0.0 mm 0.00 in0.0 mm 0.00 in0.0 mm
04:44 PM 42.8°F6.0°C 24.5°F-4.2°C 48% 12.1 mph S19.5 kmh S 15.9 mph25.6 kmh 29.30 in992.2 mb 0.00 in0.0 mm 0.00 in0.0 mm 0.00 in0.0 mm
04:39 PM 42.8°F6.0°C 24.5°F-4.2°C 48% 15.2 mph SW24.5 kmh SW 15.2 mph24.5 kmh 29.30 in992.2 mb 0.00 in0.0 mm 0.00 in0.0 mm 0.00 in0.0 mm
04:34 PM 42.8°F6.0°C 25.0°F-3.9°C 49% 13.0 mph SW20.9 kmh SW 15.9 mph25.6 kmh 29.30 in992.2 mb 0.00 in0.0 mm 0.00 in0.0 mm 0.00 in0.0 mm
04:29 PM 43.0°F6.1°C 25.1°F-3.8°C 49% 12.1 mph S19.5 kmh S 16.8 mph27.0 kmh 29.29 in991.9 mb 0.00 in0.0 mm 0.00 in0.0 mm 0.00 in0.0 mm
04:24 PM 43.0°F6.1°C 25.1°F-3.8°C 49% 14.5 mph SW23.3 kmh SW 18.3 mph29.5 kmh 29.29 in991.9 mb 0.00 in0.0 mm 0.00 in0.0 mm 0.00 in0.0 mm
04:19 PM 43.0°F6.1°C 25.6°F-3.6°C 50% 16.8 mph S27.0 kmh S 18.3 mph29.5 kmh 29.29 in991.9 mb 0.00 in0.0 mm 0.00 in0.0 mm 0.00 in0.0 mm
04:14 PM 42.8°F6.0°C 25.9°F-3.4°C 51% 13.6 mph S21.9 kmh S 19.0 mph30.6 kmh 29.29 in991.9 mb 0.00 in0.0 mm 0.00 in0.0 mm 0.00 in0.0 mm
04:09 PM 43.0°F6.1°C 26.1°F-3.3°C 51% 11.4 mph SW18.3 kmh SW 19.0 mph30.6 kmh 29.30 in992.2 mb 0.00 in0.0 mm 0.00 in0.0 mm 0.00 in0.0 mm
04:04 PM 43.0°F6.1°C 26.1°F-3.3°C 51% 13.0 mph SSW20.9 kmh SSW 17.4 mph28.0 kmh 29.30 in992.2 mb 0.00 in0.0 mm 0.00 in0.0 mm 0.00 in0.0 mm
03:59 PM 43.0°F6.1°C 26.1°F-3.3°C 51% 11.4 mph SW18.3 kmh SW 17.4 mph28.0 kmh 29.30 in992.2 mb 0.00 in0.0 mm 0.00 in0.0 mm 0.00 in0.0 mm
03:54 PM 43.0°F6.1°C 26.1°F-3.3°C 51% 15.9 mph SSW25.6 kmh SSW 17.4 mph28.0 kmh 29.30 in992.2 mb 0.00 in0.0 mm 0.00 in0.0 mm 0.00 in0.0 mm
03:49 PM 43.0°F6.1°C 26.6°F-3.0°C 52% 15.2 mph SW24.5 kmh SW 17.4 mph28.0 kmh 29.30 in992.2 mb 0.00 in0.0 mm 0.00 in0.0 mm 0.00 in0.0 mm
03:44 PM 43.0°F6.1°C 26.6°F-3.0°C 52% 17.4 mph S28.0 kmh S 18.3 mph29.5 kmh 29.30 in992.2 mb 0.00 in0.0 mm 0.00 in0.0 mm 0.00 in0.0 mm
03:39 PM 43.0°F6.1°C 26.6°F-3.0°C 52% 15.2 mph SW24.5 kmh SW 19.7 mph31.7 kmh 29.30 in992.2 mb 0.00 in0.0 mm 0.00 in0.0 mm 0.00 in0.0 mm
03:34 PM 43.0°F6.1°C 27.0°F-2.8°C 53% 15.9 mph SW25.6 kmh SW 22.8 mph36.7 kmh 29.30 in992.2 mb 0.00 in0.0 mm 0.00 in0.0 mm 0.00 in0.0 mm
03:29 PM 42.8°F6.0°C 26.9°F-2.8°C 53% 17.4 mph S28.0 kmh S 22.8 mph36.7 kmh 29.30 in992.2 mb 0.00 in0.0 mm 0.00 in0.0 mm 0.00 in0.0 mm
03:24 PM 43.0°F6.1°C 27.0°F-2.8°C 53% 19.0 mph SW30.6 kmh SW 20.6 mph33.2 kmh 29.30 in992.2 mb 0.00 in0.0 mm 0.00 in0.0 mm 0.00 in0.0 mm
03:19 PM 43.0°F6.1°C 26.6°F-3.0°C 52% 15.2 mph SW24.5 kmh SW 21.3 mph34.3 kmh 29.30 in992.2 mb 0.00 in0.0 mm 0.00 in0.0 mm 0.00 in0.0 mm
03:14 PM 43.2°F6.2°C 26.7°F-2.9°C 52% 20.6 mph SW33.2 kmh SW 21.3 mph34.3 kmh 29.30 in992.2 mb 0.00 in0.0 mm 0.00 in0.0 mm 0.00 in0.0 mm
03:09 PM 43.2°F6.2°C 26.3°F-3.2°C 51% 21.3 mph SW34.3 kmh SW 21.3 mph34.3 kmh 29.30 in992.2 mb 0.00 in0.0 mm 0.00 in0.0 mm 0.00 in0.0 mm
03:04 PM 43.5°F6.4°C 26.6°F-3.0°C 51% 16.8 mph SW27.0 kmh SW 19.7 mph31.7 kmh 29.31 in992.6 mb 0.00 in0.0 mm 0.00 in0.0 mm 0.00 in0.0 mm
02:59 PM 43.7°F6.5°C 25.8°F-3.4°C 49% 9.8 mph S15.8 kmh S 23.5 mph37.8 kmh 29.30 in992.2 mb 0.00 in0.0 mm 0.00 in0.0 mm 0.00 in0.0 mm
02:54 PM 43.9°F6.6°C 25.5°F-3.6°C 48% 19.7 mph S31.7 kmh S 23.5 mph37.8 kmh 29.31 in992.6 mb 0.00 in0.0 mm 0.00 in0.0 mm 0.00 in0.0 mm
02:49 PM 44.1°F6.7°C 25.1°F-3.8°C 47% 18.3 mph S29.5 kmh S 19.0 mph30.6 kmh 29.31 in992.6 mb 0.00 in0.0 mm 0.00 in0.0 mm 0.00 in0.0 mm
02:44 PM 44.1°F6.7°C 24.6°F-4.1°C 46% 17.4 mph SW28.0 kmh SW 17.4 mph28.0 kmh 29.31 in992.6 mb 0.00 in0.0 mm 0.00 in0.0 mm 0.00 in0.0 mm
01:38 PM 44.8°F7.1°C 22.5°F-5.3°C 41% 15.2 mph SW24.5 kmh SW 25.1 mph40.4 kmh 29.32 in992.9 mb 0.00 in0.0 mm 0.00 in0.0 mm 0.00 in0.0 mm
01:34 PM 44.8°F7.1°C 22.5°F-5.3°C 41% 18.3 mph SW29.5 kmh SW 25.1 mph40.4 kmh 29.32 in992.9 mb 0.00 in0.0 mm 0.00 in0.0 mm 0.00 in0.0 mm
01:29 PM 44.8°F7.1°C 22.5°F-5.3°C 41% 17.4 mph S28.0 kmh S 20.6 mph33.2 kmh 29.32 in992.9 mb 0.00 in0.0 mm 0.00 in0.0 mm 0.00 in0.0 mm
01:24 PM 44.8°F7.1°C 22.5°F-5.3°C 41% 15.2 mph WNW24.5 kmh WNW 23.5 mph37.8 kmh 29.33 in993.2 mb 0.00 in0.0 mm 0.00 in0.0 mm 0.00 in0.0 mm
01:19 PM 45.0°F7.2°C 22.7°F-5.2°C 41% 15.9 mph SSW25.6 kmh SSW 23.5 mph37.8 kmh 29.33 in993.2 mb 0.00 in0.0 mm 0.00 in0.0 mm 0.00 in0.0 mm
01:14 PM 45.0°F7.2°C 23.3°F-4.8°C 42% 13.0 mph S20.9 kmh S 16.8 mph27.0 kmh 29.34 in993.6 mb 0.00 in0.0 mm 0.00 in0.0 mm 0.00 in0.0 mm
01:09 PM 44.8°F7.1°C 23.1°F-4.9°C 42% 10.7 mph WNW17.2 kmh WNW 17.4 mph28.0 kmh 29.33 in993.2 mb 0.00 in0.0 mm 0.00 in0.0 mm 0.00 in0.0 mm
01:04 PM 44.8°F7.1°C 23.1°F-4.9°C 42% 16.8 mph S27.0 kmh S 22.1 mph35.6 kmh 29.34 in993.6 mb 0.00 in0.0 mm 0.00 in0.0 mm 0.00 in0.0 mm
12:59 PM 45.0°F7.2°C 23.3°F-4.8°C 42% 12.1 mph SW19.5 kmh SW 22.1 mph35.6 kmh 29.34 in993.6 mb 0.00 in0.0 mm 0.00 in0.0 mm 0.00 in0.0 mm
12:54 PM 45.0°F7.2°C 23.3°F-4.8°C 42% 16.8 mph SW27.0 kmh SW 20.6 mph33.2 kmh 29.34 in993.6 mb 0.00 in0.0 mm 0.00 in0.0 mm 0.00 in0.0 mm
12:49 PM 44.8°F7.1°C 23.1°F-4.9°C 42% 19.0 mph SW30.6 kmh SW 20.6 mph33.2 kmh 29.34 in993.6 mb 0.00 in0.0 mm 0.00 in0.0 mm 0.00 in0.0 mm
12:44 PM 44.6°F7.0°C 23.5°F-4.7°C 43% 15.2 mph S24.5 kmh S 18.3 mph29.5 kmh 29.35 in993.9 mb 0.00 in0.0 mm 0.00 in0.0 mm 0.00 in0.0 mm
12:39 PM 44.4°F6.9°C 23.9°F-4.5°C 44% 10.7 mph SW17.2 kmh SW 15.2 mph24.5 kmh 29.35 in993.9 mb 0.00 in0.0 mm 0.00 in0.0 mm 0.00 in0.0 mm
12:34 PM 44.2°F6.8°C 24.3°F-4.3°C 45% 13.0 mph WSW20.9 kmh WSW 15.9 mph25.6 kmh 29.36 in994.2 mb 0.00 in0.0 mm 0.00 in0.0 mm 0.00 in0.0 mm
12:29 PM 44.2°F6.8°C 24.3°F-4.3°C 45% 15.2 mph SW24.5 kmh SW 15.9 mph25.6 kmh 29.36 in994.2 mb 0.00 in0.0 mm 0.00 in0.0 mm 0.00 in0.0 mm
12:24 PM 44.2°F6.8°C 24.8°F-4.0°C 46% 10.7 mph SW17.2 kmh SW 12.1 mph19.5 kmh 29.36 in994.2 mb 0.00 in0.0 mm 0.00 in0.0 mm 0.00 in0.0 mm
12:19 PM 44.2°F6.8°C 24.8°F-4.0°C 46% 11.4 mph SW18.3 kmh SW 13.6 mph21.9 kmh 29.36 in994.2 mb 0.00 in0.0 mm 0.00 in0.0 mm 0.00 in0.0 mm
12:14 PM 44.2°F6.8°C 25.3°F-3.7°C 47% 10.7 mph S17.2 kmh S 14.5 mph23.3 kmh 29.36 in994.2 mb 0.00 in0.0 mm 0.00 in0.0 mm 0.00 in0.0 mm
12:09 PM 44.1°F6.7°C 25.1°F-3.8°C 47% 13.6 mph SE21.9 kmh SE 15.2 mph24.5 kmh 29.37 in994.6 mb 0.00 in0.0 mm 0.00 in0.0 mm 0.00 in0.0 mm
12:04 PM 44.1°F6.7°C 25.1°F-3.8°C 47% 13.0 mph S20.9 kmh S 15.9 mph25.6 kmh 29.37 in994.6 mb 0.00 in0.0 mm 0.00 in0.0 mm 0.00 in0.0 mm
11:59 AM 43.9°F6.6°C 25.5°F-3.6°C 48% 9.8 mph S15.8 kmh S 15.9 mph25.6 kmh 29.37 in994.6 mb 0.00 in0.0 mm 0.00 in0.0 mm 0.00 in0.0 mm
11:54 AM 43.7°F6.5°C 25.3°F-3.7°C 48% 13.0 mph SW20.9 kmh SW 18.3 mph29.5 kmh 29.38 in994.9 mb 0.00 in0.0 mm 0.00 in0.0 mm 0.00 in0.0 mm
11:49 AM 43.7°F6.5°C 25.3°F-3.7°C 48% 15.2 mph SW24.5 kmh SW 18.3 mph29.5 kmh 29.37 in994.6 mb 0.00 in0.0 mm 0.00 in0.0 mm 0.00 in0.0 mm
11:44 AM 43.7°F6.5°C 25.3°F-3.7°C 48% 11.4 mph S18.3 kmh S 16.8 mph27.0 kmh 29.38 in994.9 mb 0.00 in0.0 mm 0.00 in0.0 mm 0.00 in0.0 mm
11:39 AM 43.5°F6.4°C 25.1°F-3.8°C 48% 13.0 mph SSE20.9 kmh SSE 15.2 mph24.5 kmh 29.38 in994.9 mb 0.00 in0.0 mm 0.00 in0.0 mm 0.00 in0.0 mm
11:34 AM 43.5°F6.4°C 25.6°F-3.6°C 49% 12.1 mph S19.5 kmh S 15.2 mph24.5 kmh 29.38 in994.9 mb 0.00 in0.0 mm 0.00 in0.0 mm 0.00 in0.0 mm
11:29 AM 43.5°F6.4°C 25.6°F-3.6°C 49% 11.4 mph SW18.3 kmh SW 14.5 mph23.3 kmh 29.38 in994.9 mb 0.00 in0.0 mm 0.00 in0.0 mm 0.00 in0.0 mm
11:24 AM 43.5°F6.4°C 25.6°F-3.6°C 49% 12.1 mph SW19.5 kmh SW 17.4 mph28.0 kmh 29.39 in995.3 mb 0.00 in0.0 mm 0.00 in0.0 mm 0.00 in0.0 mm
11:19 AM 43.5°F6.4°C 25.1°F-3.8°C 48% 14.5 mph S23.3 kmh S 17.4 mph28.0 kmh 29.39 in995.3 mb 0.00 in0.0 mm 0.00 in0.0 mm 0.00 in0.0 mm
11:14 AM 43.5°F6.4°C 25.6°F-3.6°C 49% 15.9 mph SW25.6 kmh SW 16.8 mph27.0 kmh 29.39 in995.3 mb 0.00 in0.0 mm 0.00 in0.0 mm 0.00 in0.0 mm
11:09 AM 43.5°F6.4°C 25.6°F-3.6°C 49% 12.1 mph S19.5 kmh S 13.6 mph21.9 kmh 29.39 in995.3 mb 0.00 in0.0 mm 0.00 in0.0 mm 0.00 in0.0 mm
11:04 AM 43.3°F6.3°C 26.0°F-3.3°C 50% 13.6 mph SW21.9 kmh SW 15.9 mph25.6 kmh 29.39 in995.3 mb 0.00 in0.0 mm 0.00 in0.0 mm 0.00 in0.0 mm
10:59 AM 43.3°F6.3°C 26.0°F-3.3°C 50% 13.0 mph SW20.9 kmh SW 20.6 mph33.2 kmh 29.39 in995.3 mb 0.00 in0.0 mm 0.00 in0.0 mm 0.00 in0.0 mm
10:54 AM 43.3°F6.3°C 26.0°F-3.3°C 50% 11.4 mph SW18.3 kmh SW 20.6 mph33.2 kmh 29.39 in995.3 mb 0.00 in0.0 mm 0.00 in0.0 mm 0.00 in0.0 mm
10:49 AM 43.2°F6.2°C 25.8°F-3.4°C 50% 13.0 mph S20.9 kmh S 19.0 mph30.6 kmh 29.39 in995.3 mb 0.00 in0.0 mm 0.00 in0.0 mm 0.00 in0.0 mm
10:44 AM 43.2°F6.2°C 25.8°F-3.4°C 50% 12.1 mph S19.5 kmh S 19.0 mph30.6 kmh 29.39 in995.3 mb 0.00 in0.0 mm 0.00 in0.0 mm 0.00 in0.0 mm
10:39 AM 43.2°F6.2°C 26.3°F-3.2°C 51% 13.0 mph W20.9 kmh W 19.7 mph31.7 kmh 29.39 in995.3 mb 0.00 in0.0 mm 0.00 in0.0 mm 0.00 in0.0 mm
10:34 AM 43.2°F6.2°C 26.3°F-3.2°C 51% 14.5 mph SW23.3 kmh SW 19.7 mph31.7 kmh 29.39 in995.3 mb 0.00 in0.0 mm 0.00 in0.0 mm 0.00 in0.0 mm
10:29 AM 43.2°F6.2°C 26.3°F-3.2°C 51% 16.8 mph SW27.0 kmh SW 17.4 mph28.0 kmh 29.39 in995.3 mb 0.00 in0.0 mm 0.00 in0.0 mm 0.00 in0.0 mm
10:24 AM 43.2°F6.2°C 26.3°F-3.2°C 51% 12.1 mph SW19.5 kmh SW 17.4 mph28.0 kmh 29.40 in995.6 mb 0.00 in0.0 mm 0.00 in0.0 mm 0.00 in0.0 mm
10:19 AM 43.2°F6.2°C 26.3°F-3.2°C 51% 13.0 mph SW20.9 kmh SW 16.8 mph27.0 kmh 29.40 in995.6 mb 0.00 in0.0 mm 0.00 in0.0 mm 0.00 in0.0 mm
10:14 AM 43.2°F6.2°C 26.3°F-3.2°C 51% 13.6 mph S21.9 kmh S 15.2 mph24.5 kmh 29.40 in995.6 mb 0.00 in0.0 mm 0.00 in0.0 mm 0.00 in0.0 mm
10:09 AM 43.0°F6.1°C 26.1°F-3.3°C 51% 12.1 mph S19.5 kmh S 15.2 mph24.5 kmh 29.40 in995.6 mb 0.00 in0.0 mm 0.00 in0.0 mm 0.00 in0.0 mm
10:04 AM 43.2°F6.2°C 26.3°F-3.2°C 51% 9.2 mph SW14.8 kmh SW 14.5 mph23.3 kmh 29.40 in995.6 mb 0.00 in0.0 mm 0.00 in0.0 mm 0.00 in0.0 mm
09:59 AM 43.2°F6.2°C 26.3°F-3.2°C 51% 10.7 mph SW17.2 kmh SW 14.5 mph23.3 kmh 29.40 in995.6 mb 0.00 in0.0 mm 0.00 in0.0 mm 0.00 in0.0 mm
09:54 AM 43.2°F6.2°C 26.3°F-3.2°C 51% 11.4 mph S18.3 kmh S 13.6 mph21.9 kmh 29.41 in995.9 mb 0.00 in0.0 mm 0.00 in0.0 mm 0.00 in0.0 mm
09:49 AM 43.0°F6.1°C 26.1°F-3.3°C 51% 12.1 mph SE19.5 kmh SE 15.9 mph25.6 kmh 29.41 in995.9 mb 0.00 in0.0 mm 0.00 in0.0 mm 0.00 in0.0 mm
09:44 AM 43.0°F6.1°C 26.1°F-3.3°C 51% 13.6 mph S21.9 kmh S 15.9 mph25.6 kmh 29.41 in995.9 mb 0.00 in0.0 mm 0.00 in0.0 mm 0.00 in0.0 mm
09:39 AM 43.2°F6.2°C 26.3°F-3.2°C 51% 13.0 mph S20.9 kmh S 17.4 mph28.0 kmh 29.41 in995.9 mb 0.00 in0.0 mm 0.00 in0.0 mm 0.00 in0.0 mm
09:34 AM 43.2°F6.2°C 26.3°F-3.2°C 51% 10.7 mph SW17.2 kmh SW 17.4 mph28.0 kmh 29.42 in996.3 mb 0.00 in0.0 mm 0.00 in0.0 mm 0.00 in0.0 mm
09:29 AM 43.2°F6.2°C 26.3°F-3.2°C 51% 9.2 mph WSW14.8 kmh WSW 14.5 mph23.3 kmh 29.42 in996.3 mb 0.00 in0.0 mm 0.00 in0.0 mm 0.00 in0.0 mm
09:24 AM 43.2°F6.2°C 26.3°F-3.2°C 51% 8.3 mph SW13.4 kmh SW 15.2 mph24.5 kmh 29.43 in996.6 mb 0.00 in0.0 mm 0.00 in0.0 mm 0.00 in0.0 mm
09:19 AM 43.0°F6.1°C 26.1°F-3.3°C 51% 9.8 mph S15.8 kmh S 15.2 mph24.5 kmh 29.43 in996.6 mb 0.00 in0.0 mm 0.00 in0.0 mm 0.00 in0.0 mm
09:14 AM 43.0°F6.1°C 26.1°F-3.3°C 51% 15.2 mph SW24.5 kmh SW 15.2 mph24.5 kmh 29.42 in996.3 mb 0.00 in0.0 mm 0.00 in0.0 mm 0.00 in0.0 mm
09:09 AM 43.0°F6.1°C 26.1°F-3.3°C 51% 9.2 mph SW14.8 kmh SW 15.9 mph25.6 kmh 29.42 in996.3 mb 0.00 in0.0 mm 0.00 in0.0 mm 0.00 in0.0 mm
09:04 AM 43.0°F6.1°C 26.1°F-3.3°C 51% 15.2 mph SW24.5 kmh SW 17.4 mph28.0 kmh 29.43 in996.6 mb 0.00 in0.0 mm 0.00 in0.0 mm 0.00 in0.0 mm
08:59 AM 43.0°F6.1°C 26.1°F-3.3°C 51% 15.9 mph SSW25.6 kmh SSW 20.6 mph33.2 kmh 29.43 in996.6 mb 0.00 in0.0 mm 0.00 in0.0 mm 0.00 in0.0 mm
08:54 AM 43.0°F6.1°C 26.1°F-3.3°C 51% 10.7 mph S17.2 kmh S 20.6 mph33.2 kmh 29.43 in996.6 mb 0.00 in0.0 mm 0.00 in0.0 mm 0.00 in0.0 mm
08:49 AM 43.0°F6.1°C 26.1°F-3.3°C 51% 20.6 mph SW33.2 kmh SW 20.6 mph33.2 kmh 29.43 in996.6 mb 0.00 in0.0 mm 0.00 in0.0 mm 0.00 in0.0 mm
08:44 AM 43.0°F6.1°C 26.6°F-3.0°C 52% 16.8 mph SW27.0 kmh SW 19.0 mph30.6 kmh 29.43 in996.6 mb 0.00 in0.0 mm 0.00 in0.0 mm 0.00 in0.0 mm
08:39 AM 42.8°F6.0°C 26.4°F-3.1°C 52% 15.2 mph SW24.5 kmh SW 22.1 mph35.6 kmh 29.44 in997.0 mb 0.00 in0.0 mm 0.00 in0.0 mm 0.00 in0.0 mm
08:34 AM 42.6°F5.9°C 26.7°F-2.9°C 53% 14.5 mph SW23.3 kmh SW 22.1 mph35.6 kmh 29.44 in997.0 mb 0.00 in0.0 mm 0.00 in0.0 mm 0.00 in0.0 mm
08:29 AM 42.6°F5.9°C 27.2°F-2.7°C 54% 10.7 mph SW17.2 kmh SW 15.9 mph25.6 kmh 29.44 in997.0 mb 0.00 in0.0 mm 0.00 in0.0 mm 0.00 in0.0 mm
08:24 AM 42.4°F5.8°C 27.0°F-2.8°C 54% 15.9 mph S25.6 kmh S 15.9 mph25.6 kmh 29.45 in997.3 mb 0.00 in0.0 mm 0.00 in0.0 mm 0.00 in0.0 mm
08:19 AM 42.4°F5.8°C 27.4°F-2.6°C 55% 9.2 mph SW14.8 kmh SW 13.0 mph20.9 kmh 29.45 in997.3 mb 0.00 in0.0 mm 0.00 in0.0 mm 0.00 in0.0 mm
08:14 AM 42.4°F5.8°C 27.4°F-2.6°C 55% 10.7 mph SW17.2 kmh SW 13.6 mph21.9 kmh 29.45 in997.3 mb 0.00 in0.0 mm 0.00 in0.0 mm 0.00 in0.0 mm
08:09 AM 42.3°F5.7°C 27.7°F-2.4°C 56% 11.4 mph SW18.3 kmh SW 13.6 mph21.9 kmh 29.45 in997.3 mb 0.00 in0.0 mm 0.00 in0.0 mm 0.00 in0.0 mm
08:04 AM 42.3°F5.7°C 27.7°F-2.4°C 56% 6.9 mph S11.1 kmh S 10.7 mph17.2 kmh 29.45 in997.3 mb 0.00 in0.0 mm 0.00 in0.0 mm 0.00 in0.0 mm
07:59 AM 42.4°F5.8°C 27.9°F-2.3°C 56% 6.9 mph SW11.1 kmh SW 9.8 mph15.8 kmh 29.46 in997.6 mb 0.00 in0.0 mm 0.00 in0.0 mm 0.00 in0.0 mm
07:54 AM 42.4°F5.8°C 28.3°F-2.1°C 57% 9.8 mph SW15.8 kmh SW 12.1 mph19.5 kmh 29.46 in997.6 mb 0.00 in0.0 mm 0.00 in0.0 mm 0.00 in0.0 mm
07:49 AM 42.4°F5.8°C 28.3°F-2.1°C 57% 8.3 mph S13.4 kmh S 12.1 mph19.5 kmh 29.45 in997.3 mb 0.00 in0.0 mm 0.00 in0.0 mm 0.00 in0.0 mm
07:44 AM 42.3°F5.7°C 28.1°F-2.2°C 57% 8.3 mph SW13.4 kmh SW 11.4 mph18.3 kmh 29.45 in997.3 mb 0.00 in0.0 mm 0.00 in0.0 mm 0.00 in0.0 mm
07:39 AM 42.3°F5.7°C 28.1°F-2.2°C 57% 9.2 mph S14.8 kmh S 10.7 mph17.2 kmh 29.45 in997.3 mb 0.00 in0.0 mm 0.00 in0.0 mm 0.00 in0.0 mm
07:34 AM 42.3°F5.7°C 27.7°F-2.4°C 56% 10.7 mph S17.2 kmh S 10.7 mph17.2 kmh 29.46 in997.6 mb 0.00 in0.0 mm 0.00 in0.0 mm 0.00 in0.0 mm
07:29 AM 42.3°F5.7°C 27.7°F-2.4°C 56% 6.0 mph S9.7 kmh S 9.8 mph15.8 kmh 29.46 in997.6 mb 0.00 in0.0 mm 0.00 in0.0 mm 0.00 in0.0 mm
07:24 AM 42.4°F5.8°C 27.4°F-2.6°C 55% 8.3 mph S13.4 kmh S 14.5 mph23.3 kmh 29.46 in997.6 mb 0.00 in0.0 mm 0.00 in0.0 mm 0.00 in0.0 mm
07:19 AM 42.6°F5.9°C 27.6°F-2.4°C 55% 9.2 mph S14.8 kmh S 14.5 mph23.3 kmh 29.46 in997.6 mb 0.00 in0.0 mm 0.00 in0.0 mm 0.00 in0.0 mm
07:14 AM 42.8°F6.0°C 27.8°F-2.3°C 55% 12.1 mph SW19.5 kmh SW 12.1 mph19.5 kmh 29.46 in997.6 mb 0.00 in0.0 mm 0.00 in0.0 mm 0.00 in0.0 mm
07:09 AM 43.0°F6.1°C 27.9°F-2.3°C 55% 10.7 mph SW17.2 kmh SW 12.1 mph19.5 kmh 29.47 in998.0 mb 0.00 in0.0 mm 0.00 in0.0 mm 0.00 in0.0 mm
07:04 AM 43.0°F6.1°C 27.9°F-2.3°C 55% 9.8 mph SW15.8 kmh SW 11.4 mph18.3 kmh 29.47 in998.0 mb 0.00 in0.0 mm 0.00 in0.0 mm 0.00 in0.0 mm
06:59 AM 43.0°F6.1°C 27.9°F-2.3°C 55% 9.8 mph SW15.8 kmh SW 11.4 mph18.3 kmh 29.47 in998.0 mb 0.00 in0.0 mm 0.00 in0.0 mm 0.00 in0.0 mm
06:54 AM 43.0°F6.1°C 28.4°F-2.0°C 56% 11.4 mph SW18.3 kmh SW 11.4 mph18.3 kmh 29.47 in998.0 mb 0.00 in0.0 mm 0.00 in0.0 mm 0.00 in0.0 mm
06:49 AM 43.0°F6.1°C 27.9°F-2.3°C 55% 10.7 mph SW17.2 kmh SW 11.4 mph18.3 kmh 29.48 in998.3 mb 0.00 in0.0 mm 0.00 in0.0 mm 0.00 in0.0 mm
06:44 AM 43.0°F6.1°C 27.9°F-2.3°C 55% 9.2 mph SW14.8 kmh SW 13.0 mph20.9 kmh 29.47 in998.0 mb 0.00 in0.0 mm 0.00 in0.0 mm 0.00 in0.0 mm
06:39 AM 43.2°F6.2°C 28.1°F-2.2°C 55% 9.8 mph S15.8 kmh S 13.6 mph21.9 kmh 29.47 in998.0 mb 0.00 in0.0 mm 0.00 in0.0 mm 0.00 in0.0 mm
06:34 AM 43.2°F6.2°C 27.7°F-2.4°C 54% 8.3 mph SW13.4 kmh SW 13.6 mph21.9 kmh 29.47 in998.0 mb 0.00 in0.0 mm 0.00 in0.0 mm 0.00 in0.0 mm
06:29 AM 43.3°F6.3°C 27.8°F-2.3°C 54% 11.4 mph S18.3 kmh S 14.5 mph23.3 kmh 29.47 in998.0 mb 0.00 in0.0 mm 0.00 in0.0 mm 0.00 in0.0 mm
06:24 AM 43.3°F6.3°C 27.8°F-2.3°C 54% 12.1 mph SW19.5 kmh SW 14.5 mph23.3 kmh 29.47 in998.0 mb 0.00 in0.0 mm 0.00 in0.0 mm 0.00 in0.0 mm
06:19 AM 43.5°F6.4°C 28.4°F-2.0°C 55% 13.0 mph SW20.9 kmh SW 15.9 mph25.6 kmh 29.48 in998.3 mb 0.00 in0.0 mm 0.00 in0.0 mm 0.00 in0.0 mm
06:14 AM 43.7°F6.5°C 28.6°F-1.9°C 55% 8.3 mph SW13.4 kmh SW 15.9 mph25.6 kmh 29.48 in998.3 mb 0.00 in0.0 mm 0.00 in0.0 mm 0.00 in0.0 mm
06:09 AM 43.7°F6.5°C 28.6°F-1.9°C 55% 11.4 mph S18.3 kmh S 11.4 mph18.3 kmh 29.48 in998.3 mb 0.00 in0.0 mm 0.00 in0.0 mm 0.00 in0.0 mm
06:04 AM 43.7°F6.5°C 28.6°F-1.9°C 55% 10.7 mph S17.2 kmh S 13.6 mph21.9 kmh 29.49 in998.6 mb 0.00 in0.0 mm 0.00 in0.0 mm 0.00 in0.0 mm
05:59 AM 43.7°F6.5°C 28.6°F-1.9°C 55% 10.7 mph S17.2 kmh S 13.6 mph21.9 kmh 29.48 in998.3 mb 0.00 in0.0 mm 0.00 in0.0 mm 0.00 in0.0 mm
05:54 AM 43.5°F6.4°C 28.9°F-1.7°C 56% 9.8 mph SW15.8 kmh SW 13.0 mph20.9 kmh 29.48 in998.3 mb 0.00 in0.0 mm 0.00 in0.0 mm 0.00 in0.0 mm
05:49 AM 43.3°F6.3°C 29.1°F-1.6°C 57% 9.8 mph SW15.8 kmh SW 13.0 mph20.9 kmh 29.49 in998.6 mb 0.00 in0.0 mm 0.00 in0.0 mm 0.00 in0.0 mm
05:44 AM 43.3°F6.3°C 29.1°F-1.6°C 57% 7.6 mph S12.2 kmh S 13.6 mph21.9 kmh 29.49 in998.6 mb 0.00 in0.0 mm 0.00 in0.0 mm 0.00 in0.0 mm
05:39 AM 43.2°F6.2°C 29.0°F-1.7°C 57% 11.4 mph SW18.3 kmh SW 13.6 mph21.9 kmh 29.49 in998.6 mb 0.00 in0.0 mm 0.00 in0.0 mm 0.00 in0.0 mm
05:34 AM 43.2°F6.2°C 29.0°F-1.7°C 57% 9.8 mph SW15.8 kmh SW 13.6 mph21.9 kmh 29.49 in998.6 mb 0.00 in0.0 mm 0.00 in0.0 mm 0.00 in0.0 mm
05:29 AM 43.0°F6.1°C 28.8°F-1.8°C 57% 9.8 mph S15.8 kmh S 13.0 mph20.9 kmh 29.49 in998.6 mb 0.00 in0.0 mm 0.00 in0.0 mm 0.00 in0.0 mm
05:24 AM 43.0°F6.1°C 28.8°F-1.8°C 57% 12.1 mph S19.5 kmh S 13.0 mph20.9 kmh 29.50 in999.0 mb 0.00 in0.0 mm 0.00 in0.0 mm 0.00 in0.0 mm
05:19 AM 42.8°F6.0°C 28.6°F-1.9°C 57% 12.1 mph S19.5 kmh S 12.1 mph19.5 kmh 29.50 in999.0 mb 0.00 in0.0 mm 0.00 in0.0 mm 0.00 in0.0 mm
05:14 AM 42.8°F6.0°C 28.6°F-1.9°C 57% 12.1 mph SW19.5 kmh SW 12.1 mph19.5 kmh 29.49 in998.6 mb 0.00 in0.0 mm 0.00 in0.0 mm 0.00 in0.0 mm
05:09 AM 42.8°F6.0°C 28.6°F-1.9°C 57% 7.6 mph S12.2 kmh S 11.4 mph18.3 kmh 29.50 in999.0 mb 0.00 in0.0 mm 0.00 in0.0 mm 0.00 in0.0 mm
05:04 AM 42.8°F6.0°C 28.6°F-1.9°C 57% 11.4 mph SW18.3 kmh SW 13.6 mph21.9 kmh 29.50 in999.0 mb 0.00 in0.0 mm 0.00 in0.0 mm 0.00 in0.0 mm
04:59 AM 42.8°F6.0°C 28.6°F-1.9°C 60% Calm Calm 13.6 mph21.9 kmh 28.03 in949.2 mb 0.00 in0.0 mm 0.00 in0.0 mm 0.00 in0.0 mm
04:54 AM 42.8°F6.0°C 28.6°F-1.9°C 60% Calm Calm 11.4 mph18.3 kmh 28.03 in949.2 mb 0.00 in0.0 mm 0.00 in0.0 mm 0.00 in0.0 mm
04:49 AM 42.8°F6.0°C 28.6°F-1.9°C 57% 9.2 mph SW14.8 kmh SW 11.4 mph18.3 kmh 29.51 in999.3 mb 0.00 in0.0 mm 0.00 in0.0 mm 0.00 in0.0 mm
04:44 AM 42.6°F5.9°C 28.5°F-1.9°C 57% 11.4 mph SW18.3 kmh SW 13.0 mph20.9 kmh 29.52 in999.7 mb 0.00 in0.0 mm 0.00 in0.0 mm 0.00 in0.0 mm
04:39 AM 42.6°F5.9°C 28.5°F-1.9°C 57% 10.7 mph S17.2 kmh S 13.0 mph20.9 kmh 29.51 in999.3 mb 0.00 in0.0 mm 0.00 in0.0 mm 0.00 in0.0 mm
04:34 AM 42.4°F5.8°C 28.3°F-2.1°C 58% Calm Calm 12.1 mph19.5 kmh 29.52 in999.7 mb 0.00 in0.0 mm 0.00 in0.0 mm 0.00 in0.0 mm
04:29 AM 42.4°F5.8°C 28.3°F-2.1°C 57% 11.4 mph S18.3 kmh S 13.6 mph21.9 kmh 29.52 in999.7 mb 0.00 in0.0 mm 0.00 in0.0 mm 0.00 in0.0 mm
04:24 AM 42.3°F5.7°C 28.1°F-2.2°C 57% Calm Calm 13.6 mph21.9 kmh 29.52 in999.7 mb 0.00 in0.0 mm 0.00 in0.0 mm 0.00 in0.0 mm
04:19 AM 42.3°F5.7°C 27.7°F-2.4°C 56% 11.4 mph SE18.3 kmh SE 13.0 mph20.9 kmh 29.53 in1000.0 mb 0.00 in0.0 mm 0.00 in0.0 mm 0.00 in0.0 mm
04:14 AM 42.1°F5.6°C 27.5°F-2.5°C 56% 10.7 mph S17.2 kmh S 14.5 mph23.3 kmh 29.53 in1000.0 mb 0.00 in0.0 mm 0.00 in0.0 mm 0.00 in0.0 mm
04:09 AM 42.1°F5.6°C 27.5°F-2.5°C 56% 11.4 mph SW18.3 kmh SW 14.5 mph23.3 kmh 29.53 in1000.0 mb 0.00 in0.0 mm 0.00 in0.0 mm 0.00 in0.0 mm
04:04 AM 42.1°F5.6°C 27.5°F-2.5°C 56% 10.7 mph SW17.2 kmh SW 12.1 mph19.5 kmh 29.53 in1000.0 mb 0.00 in0.0 mm 0.00 in0.0 mm 0.00 in0.0 mm
03:59 AM 42.1°F5.6°C 27.5°F-2.5°C 56% 10.7 mph SW17.2 kmh SW 14.5 mph23.3 kmh 29.54 in1000.3 mb 0.00 in0.0 mm 0.00 in0.0 mm 0.00 in0.0 mm
03:54 AM 41.9°F5.5°C 27.4°F-2.6°C 56% 8.3 mph SW13.4 kmh SW 14.5 mph23.3 kmh 29.54 in1000.3 mb 0.00 in0.0 mm 0.00 in0.0 mm 0.00 in0.0 mm
03:49 AM 41.7°F5.4°C 27.6°F-2.4°C 57% 11.4 mph SW18.3 kmh SW 13.6 mph21.9 kmh 29.54 in1000.3 mb 0.00 in0.0 mm 0.00 in0.0 mm 0.00 in0.0 mm
03:44 AM 41.5°F5.3°C 27.5°F-2.5°C 57% 9.2 mph SW14.8 kmh SW 13.6 mph21.9 kmh 29.54 in1000.3 mb 0.00 in0.0 mm 0.00 in0.0 mm 0.00 in0.0 mm
03:39 AM 41.5°F5.3°C 27.5°F-2.5°C 57% 9.8 mph S15.8 kmh S 10.7 mph17.2 kmh 29.54 in1000.3 mb 0.00 in0.0 mm 0.00 in0.0 mm 0.00 in0.0 mm
03:34 AM 41.4°F5.2°C 27.3°F-2.6°C 57% 10.7 mph S17.2 kmh S 10.7 mph17.2 kmh 29.54 in1000.3 mb 0.00 in0.0 mm 0.00 in0.0 mm 0.00 in0.0 mm
03:29 AM 41.2°F5.1°C 26.7°F-2.9°C 56% 6.0 mph S9.7 kmh S 8.3 mph13.4 kmh 29.55 in1000.7 mb 0.00 in0.0 mm 0.00 in0.0 mm 0.00 in0.0 mm
03:24 AM 41.2°F5.1°C 27.1°F-2.7°C 57% 8.3 mph S13.4 kmh S 9.2 mph14.8 kmh 29.55 in1000.7 mb 0.00 in0.0 mm 0.00 in0.0 mm 0.00 in0.0 mm
03:19 AM 41.2°F5.1°C 26.7°F-2.9°C 56% 8.3 mph S13.4 kmh S 9.2 mph14.8 kmh 29.55 in1000.7 mb 0.00 in0.0 mm 0.00 in0.0 mm 0.00 in0.0 mm
03:14 AM 41.2°F5.1°C 26.7°F-2.9°C 56% 6.9 mph S11.1 kmh S 8.3 mph13.4 kmh 29.56 in1001.0 mb 0.00 in0.0 mm 0.00 in0.0 mm 0.00 in0.0 mm
03:09 AM 41.2°F5.1°C 26.3°F-3.2°C 55% 6.9 mph S11.1 kmh S 8.3 mph13.4 kmh 29.56 in1001.0 mb 0.00 in0.0 mm 0.00 in0.0 mm 0.00 in0.0 mm
03:04 AM 41.4°F5.2°C 26.4°F-3.1°C 55% 6.9 mph S11.1 kmh S 8.3 mph13.4 kmh 29.56 in1001.0 mb 0.00 in0.0 mm 0.00 in0.0 mm 0.00 in0.0 mm
02:59 AM 41.4°F5.2°C 26.4°F-3.1°C 55% 6.9 mph S11.1 kmh S 9.8 mph15.8 kmh 29.56 in1001.0 mb 0.00 in0.0 mm 0.00 in0.0 mm 0.00 in0.0 mm
02:54 AM 41.5°F5.3°C 26.1°F-3.3°C 54% 6.9 mph SW11.1 kmh SW 9.8 mph15.8 kmh 29.56 in1001.0 mb 0.00 in0.0 mm 0.00 in0.0 mm 0.00 in0.0 mm
02:49 AM 41.7°F5.4°C 26.3°F-3.2°C 54% 6.0 mph S9.7 kmh S 9.8 mph15.8 kmh 29.57 in1001.4 mb 0.00 in0.0 mm 0.00 in0.0 mm 0.00 in0.0 mm
02:44 AM 41.9°F5.5°C 26.5°F-3.1°C 54% 8.3 mph SW13.4 kmh SW 9.2 mph14.8 kmh 29.57 in1001.4 mb 0.00 in0.0 mm 0.00 in0.0 mm 0.00 in0.0 mm
02:39 AM 42.1°F5.6°C 26.7°F-2.9°C 54% 9.2 mph S14.8 kmh S 11.4 mph18.3 kmh 29.57 in1001.4 mb 0.00 in0.0 mm 0.00 in0.0 mm 0.00 in0.0 mm
02:34 AM 42.3°F5.7°C 26.8°F-2.9°C 54% 7.6 mph S12.2 kmh S 11.4 mph18.3 kmh 29.57 in1001.4 mb 0.00 in0.0 mm 0.00 in0.0 mm 0.00 in0.0 mm
02:29 AM 42.3°F5.7°C 26.8°F-2.9°C 54% 8.3 mph S13.4 kmh S 11.4 mph18.3 kmh 29.58 in1001.7 mb 0.00 in0.0 mm 0.00 in0.0 mm 0.00 in0.0 mm
02:24 AM 42.3°F5.7°C 26.4°F-3.1°C 53% 7.6 mph S12.2 kmh S 13.6 mph21.9 kmh 29.58 in1001.7 mb 0.00 in0.0 mm 0.00 in0.0 mm 0.00 in0.0 mm
02:19 AM 42.3°F5.7°C 26.4°F-3.1°C 53% 8.3 mph SW13.4 kmh SW 13.6 mph21.9 kmh 29.58 in1001.7 mb 0.00 in0.0 mm 0.00 in0.0 mm 0.00 in0.0 mm
02:14 AM 42.4°F5.8°C 26.5°F-3.1°C 53% 8.3 mph SW13.4 kmh SW 9.8 mph15.8 kmh 29.59 in1002.0 mb 0.00 in0.0 mm 0.00 in0.0 mm 0.00 in0.0 mm
02:09 AM 42.4°F5.8°C 26.1°F-3.3°C 52% 7.6 mph SSW12.2 kmh SSW 9.8 mph15.8 kmh 29.59 in1002.0 mb 0.00 in0.0 mm 0.00 in0.0 mm 0.00 in0.0 mm
02:04 AM 42.6°F5.9°C 26.2°F-3.2°C 52% 9.8 mph S15.8 kmh S 13.0 mph20.9 kmh 29.59 in1002.0 mb 0.00 in0.0 mm 0.00 in0.0 mm 0.00 in0.0 mm
01:59 AM 42.6°F5.9°C 26.2°F-3.2°C 52% 9.8 mph S15.8 kmh S 13.0 mph20.9 kmh 29.60 in1002.4 mb 0.00 in0.0 mm 0.00 in0.0 mm 0.00 in0.0 mm
01:54 AM 42.6°F5.9°C 26.2°F-3.2°C 52% 9.8 mph SW15.8 kmh SW 10.7 mph17.2 kmh 29.60 in1002.4 mb 0.00 in0.0 mm 0.00 in0.0 mm 0.00 in0.0 mm
01:49 AM 42.6°F5.9°C 26.2°F-3.2°C 52% 6.9 mph SW11.1 kmh SW 10.7 mph17.2 kmh 29.61 in1002.7 mb 0.00 in0.0 mm 0.00 in0.0 mm 0.00 in0.0 mm
01:44 AM 42.6°F5.9°C 26.2°F-3.2°C 52% 7.6 mph S12.2 kmh S 11.4 mph18.3 kmh 29.61 in1002.7 mb 0.00 in0.0 mm 0.00 in0.0 mm 0.00 in0.0 mm
01:39 AM 42.6°F5.9°C 26.2°F-3.2°C 52% 9.8 mph SW15.8 kmh SW 12.1 mph19.5 kmh 29.62 in1003.0 mb 0.00 in0.0 mm 0.00 in0.0 mm 0.00 in0.0 mm
01:34 AM 42.8°F6.0°C 25.9°F-3.4°C 51% 9.2 mph SW14.8 kmh SW 12.1 mph19.5 kmh 29.62 in1003.0 mb 0.00 in0.0 mm 0.00 in0.0 mm 0.00 in0.0 mm
01:29 AM 42.8°F6.0°C 25.9°F-3.4°C 51% 7.6 mph SW12.2 kmh SW 12.1 mph19.5 kmh 29.62 in1003.0 mb 0.00 in0.0 mm 0.00 in0.0 mm 0.00 in0.0 mm
01:24 AM 42.8°F6.0°C 25.9°F-3.4°C 51% 8.3 mph SW13.4 kmh SW 15.2 mph24.5 kmh 29.62 in1003.0 mb 0.00 in0.0 mm 0.00 in0.0 mm 0.00 in0.0 mm
01:19 AM 42.8°F6.0°C 25.9°F-3.4°C 51% 6.9 mph S11.1 kmh S 15.2 mph24.5 kmh 29.62 in1003.0 mb 0.00 in0.0 mm 0.00 in0.0 mm 0.00 in0.0 mm
01:14 AM 42.8°F6.0°C 25.9°F-3.4°C 51% 15.2 mph SSW24.5 kmh SSW 15.2 mph24.5 kmh 29.62 in1003.0 mb 0.00 in0.0 mm 0.00 in0.0 mm 0.00 in0.0 mm
01:09 AM 42.8°F6.0°C 25.9°F-3.4°C 51% 9.8 mph SW15.8 kmh SW 14.5 mph23.3 kmh 29.63 in1003.4 mb 0.00 in0.0 mm 0.00 in0.0 mm 0.00 in0.0 mm
01:04 AM 42.8°F6.0°C 25.9°F-3.4°C 51% 6.9 mph S11.1 kmh S 13.0 mph20.9 kmh 29.63 in1003.4 mb 0.00 in0.0 mm 0.00 in0.0 mm 0.00 in0.0 mm
12:59 AM 42.6°F5.9°C 26.2°F-3.2°C 52% 8.3 mph SW13.4 kmh SW 12.1 mph19.5 kmh 29.63 in1003.4 mb 0.00 in0.0 mm 0.00 in0.0 mm 0.00 in0.0 mm
12:54 AM 42.4°F5.8°C 26.1°F-3.3°C 52% 9.2 mph SSW14.8 kmh SSW 11.4 mph18.3 kmh 29.62 in1003.0 mb 0.00 in0.0 mm 0.00 in0.0 mm 0.00 in0.0 mm
12:49 AM 42.4°F5.8°C 26.1°F-3.3°C 52% 9.8 mph S15.8 kmh S 11.4 mph18.3 kmh 29.63 in1003.4 mb 0.00 in0.0 mm 0.00 in0.0 mm 0.00 in0.0 mm
12:44 AM 42.4°F5.8°C 25.6°F-3.6°C 51% 9.8 mph N15.8 kmh N 10.7 mph17.2 kmh 29.63 in1003.4 mb 0.00 in0.0 mm 0.00 in0.0 mm 0.00 in0.0 mm
12:39 AM 42.4°F5.8°C 25.6°F-3.6°C 51% 7.6 mph S12.2 kmh S 10.7 mph17.2 kmh 29.62 in1003.0 mb 0.00 in0.0 mm 0.00 in0.0 mm 0.00 in0.0 mm
12:34 AM 42.4°F5.8°C 25.6°F-3.6°C 51% 6.0 mph S9.7 kmh S 9.8 mph15.8 kmh 29.63 in1003.4 mb 0.00 in0.0 mm 0.00 in0.0 mm 0.00 in0.0 mm
12:29 AM 42.4°F5.8°C 25.6°F-3.6°C 51% 8.3 mph SSE13.4 kmh SSE 9.8 mph15.8 kmh 29.63 in1003.4 mb 0.00 in0.0 mm 0.00 in0.0 mm 0.00 in0.0 mm
12:24 AM 42.6°F5.9°C 25.3°F-3.7°C 50% 6.9 mph SW11.1 kmh SW 11.4 mph18.3 kmh 29.63 in1003.4 mb 0.00 in0.0 mm 0.00 in0.0 mm 0.00 in0.0 mm
12:19 AM 42.6°F5.9°C 25.3°F-3.7°C 50% 8.3 mph S13.4 kmh S 11.4 mph18.3 kmh 29.63 in1003.4 mb 0.00 in0.0 mm 0.00 in0.0 mm 0.00 in0.0 mm
12:14 AM 42.6°F5.9°C 24.8°F-4.0°C 49% 9.8 mph S15.8 kmh S 10.7 mph17.2 kmh 29.63 in1003.4 mb 0.00 in0.0 mm 0.00 in0.0 mm 0.00 in0.0 mm
12:09 AM 42.6°F5.9°C 24.8°F-4.0°C 49% 9.8 mph SSW15.8 kmh SSW 10.7 mph17.2 kmh 29.64 in1003.7 mb 0.00 in0.0 mm 0.00 in0.0 mm 0.00 in0.0 mm
12:04 AM 43.0°F6.1°C 24.7°F-4.1°C 48% 6.0 mph S9.7 kmh S 9.8 mph15.8 kmh 29.64 in1003.7 mb 0.00 in0.0 mm 0.00 in0.0 mm 0.00 in0.0 mm